Flugplatz Zwickau

Für EDBI sind keine METAR/TAF Berichte vorhanden.
Es werden die Flugwettermeldungen vom Flugplatz Altenburg-Nobitz in 31 km Entfernung angezeigt.

Bericht für EDAC

vom 30.09. um 22:20 UTC

Wind 4 kt aus 150°

Sichtweite 10 km oder mehr

keine Wolken

Temperatur 6.0°C

Taupunkt 5.0°C

Luftfeuchtigkeit 93%

Luftdruck 1012 hPa

EDAC 302220Z AUTO 15004KT 9999 // NCD 06/05 Q1012

Prognose für EDAC

vom 30.09. um 17:00 UTC

Am 30.09. zwischen 18:00 UTC und 03:00 UTC

variable Windrichtung mit 3 kt

Sichtweite 10 km oder mehr

keine signifikanten Wettererscheinungen

keine Wolken

TAF EDAC 301700Z 3018/0103 VRB03KT CAVOK
Impressum